Soaring Guidance
Issued by NWS Reno, NV

Home | Current Version | Previous Version | Text Only | Print | Product List | Glossary On
Versions: 1 2 3 4 5 6 7 8 9 10
000
UXUS97 KREV 251332
SRGREV

SOARING FORECAST
NATIONAL WEATHER SERVICE - RENO NV
700 AM PDT MON SEP 25 2017

THIS SOARING FORECAST IS FOR THE EASTERN SIERRA AND WESTERN NEVADA
WITH SPECIFIC INDICES FOR THE GREATER RENO AREA.

THIS FORECAST IS PREPARED DAILY BY 700 AM AND IS NOT UPDATED.

FOR CURRENT FLIGHT CONDITIONS...FORECASTS...AND ADVISORIES...ACCESS
YOUR LOCAL BRIEFING OUTLET OR FLIGHT SERVICE STATION.

*******************************************************************
FORECASTED LOCAL INDICES FOR RENO:        TODAY     YESTERDAY
FORECASTED MAX TEMP AT RENO (DEG F).....     68          65
FORECASTED TRIGGER TEMPERATURE (DEG F)..     57          51
   EXCEEDED YESTERDAY BY 1055 AM PDT
FORECASTED MAXIMUM ALTITUDE (FT MSL)....  10600       12400
FORECASTED SOARING INDEX (FPM)..........    378         522
FORECASTED K-INDEX.........VALID 18Z....      5           8
FORECASTED K-INDEX.........VALID 00Z....     12          13
FORECASTED LIFTED INDEX....VALID 18Z....     11          10
FORECASTED LIFTED INDEX....VALID 00Z....      8           9

AFTERNOON WINDS ALOFT FORECAST
MSL (FT) WIND/TEMP
9000  0206/+04
10000 0211/+02
12000 0220/+00
14000 2123/-03
16000 3926/-07
18000 3635/-11
24000 3549/-23
30000 3685/-38
34000 8600/-48
39000 3676/-56

SLIDE MOUNTAIN DATA:
     DATE       TIME     TEMP  DEWPT   RH         WIND (MPH)
                        (F)   (F)           | DIR  SPEED GUST
2017-09-25    05:50      31    23     64    | 043   22   32
2017-09-25    05:30      30    22     62    | 042   21   28
2017-09-25    05:20      31    22     61    | 047   21   28
2017-09-25    05:00      31    22     60    | 044   24   29

SIERRA CREST 8700 FT DATA:
   DATE     TIME  TEMP  RH         WIND
                            DIR   SPEED   GUST
2017-09-25 0545   34   59   074     35     43
2017-09-25 0530   34   59   074     36     43
2017-09-25 0515   34   58   073     34     42
2017-09-25 0500   34   61   073     34     40

RENO TAF FORECAST:
KRNO 251120Z 2512/2612 VRB03KT P6SM FEW200
     FM251900 06006KT P6SM FEW110 SCT200
     FM260300 VRB03KT P6SM SCT200

CARSON CITY TAF FORECAST:
KCXP 251120Z 2512/2612 VRB03KT P6SM FEW200
     FM251900 10009KT P6SM FEW100 SCT200
     FM260300 VRB03KT P6SM SCT200

OUTLOOK FOR THE RENO-CARSON CITY-MINDEN AREA:
.TUESDAY...SUNNY. HIGHS 69 TO 74. LIGHT WINDS BECOMING NORTHEAST
AROUND 10 MPH IN THE AFTERNOON.

SUNRISE AND SUNSET
SEPTEMBER 25 2017.....SUNRISE   650 AM PDT   SUNSET   651 PM PDT
SEPTEMBER 26 2017.....SUNRISE   651 AM PDT   SUNSET   649 PM PDT



USA.gov is the U.S. government's official web portal to all federal, state and local government web resources and services.